createdAt,value
2022-08-21T00:01:50.856Z,14.80
2022-08-21T00:04:22.154Z,14.80
2022-08-21T00:06:50.064Z,15.40
2022-08-21T00:09:19.360Z,14.90
2022-08-21T00:11:46.187Z,14.90
2022-08-21T00:14:13.877Z,14.80
2022-08-21T00:16:40.904Z,14.80
2022-08-21T00:19:07.951Z,14.70
2022-08-21T00:21:35.251Z,13.40
2022-08-21T00:24:02.586Z,14.70
2022-08-21T00:26:29.407Z,14.60
2022-08-21T00:28:56.132Z,14.70
2022-08-21T00:31:25.762Z,14.60
2022-08-21T00:33:52.660Z,14.50
2022-08-21T00:36:26.197Z,14.40
2022-08-21T00:38:52.870Z,14.10
2022-08-21T00:41:36.579Z,14.00
2022-08-21T00:44:09.536Z,13.90
2022-08-21T00:46:37.030Z,13.90
2022-08-21T00:49:04.678Z,15.50
2022-08-21T00:51:39.826Z,13.90
2022-08-21T00:54:11.618Z,14.00
2022-08-21T00:56:47.123Z,15.10
2022-08-21T00:59:15.839Z,14.60
2022-08-21T01:01:42.526Z,14.70
2022-08-21T01:04:09.268Z,14.00
2022-08-21T01:06:36.330Z,13.90
2022-08-21T01:09:03.370Z,14.00
2022-08-21T01:11:30.302Z,13.90
2022-08-21T01:13:57.077Z,13.90
2022-08-21T01:16:24.116Z,13.80
2022-08-21T01:18:51.467Z,13.90
2022-08-21T01:21:20.277Z,13.80
2022-08-21T01:23:48.428Z,13.80
2022-08-21T01:26:17.216Z,13.90
2022-08-21T05:32:46.800Z,12.80
2022-08-21T05:35:13.445Z,12.90
2022-08-21T05:37:40.357Z,15.20
2022-08-21T05:40:21.753Z,15.90
2022-08-21T05:42:56.570Z,13.10
2022-08-21T05:45:41.834Z,13.20
2022-08-21T05:48:18.147Z,13.30
2022-08-21T05:50:45.725Z,13.40
2022-08-21T05:53:13.477Z,15.10
2022-08-21T05:55:45.296Z,13.70
2022-08-21T05:58:13.334Z,14.70
2022-08-21T06:00:40.503Z,13.90
2022-08-21T06:03:11.513Z,15.60
2022-08-21T06:05:38.739Z,14.60
2022-08-21T06:08:05.468Z,14.30
2022-08-21T06:10:32.339Z,16.10
2022-08-21T06:12:59.167Z,14.50
2022-08-21T06:15:27.377Z,15.50
2022-08-21T06:17:54.809Z,15.50
2022-08-21T06:20:21.622Z,16.10
2022-08-21T06:22:48.294Z,15.10
2022-08-21T06:25:15.021Z,16.80
2022-08-21T06:27:41.885Z,15.20
2022-08-21T06:30:09.119Z,15.50
2022-08-21T06:32:36.219Z,15.20
2022-08-21T06:35:03.185Z,15.50
2022-08-21T06:37:30.184Z,15.50
2022-08-21T06:39:56.976Z,15.70
2022-08-21T06:42:27.887Z,16.10
2022-08-21T06:44:54.847Z,16.90
2022-08-21T06:47:21.703Z,15.90
2022-08-21T06:49:48.308Z,16.00
2022-08-21T06:52:16.286Z,16.40
2022-08-21T06:54:43.023Z,16.10
2022-08-21T06:57:09.863Z,16.40
2022-08-21T06:59:36.619Z,17.90
2022-08-21T07:02:03.445Z,16.50
2022-08-21T07:04:30.136Z,16.60
2022-08-21T07:06:56.892Z,17.10
2022-08-21T07:09:24.841Z,16.70
2022-08-21T07:11:53.220Z,18.40
2022-08-21T07:14:20.077Z,18.10
2022-08-21T07:16:47.655Z,16.90
2022-08-21T07:19:14.422Z,17.00
2022-08-21T07:21:41.183Z,18.40
2022-08-21T07:24:07.847Z,17.20
2022-08-21T07:26:34.520Z,17.30
2022-08-21T07:29:01.191Z,17.60
2022-08-21T07:31:28.079Z,17.50
2022-08-21T07:33:55.213Z,17.70
2022-08-21T07:36:22.021Z,17.60
2022-08-21T07:38:48.943Z,17.80
2022-08-21T07:41:24.013Z,17.90
2022-08-21T07:43:52.849Z,18.00
2022-08-21T07:46:20.574Z,19.90
2022-08-21T07:48:47.468Z,18.20
2022-08-21T07:51:15.666Z,18.10
2022-08-21T07:53:42.449Z,19.80
2022-08-21T07:56:09.551Z,19.40
2022-08-21T07:58:36.179Z,20.20
2022-08-21T08:01:03.423Z,18.70
2022-08-21T08:03:30.347Z,18.80
2022-08-21T08:05:57.773Z,18.70
2022-08-21T08:08:24.710Z,18.80
2022-08-21T08:10:51.676Z,20.20
2022-08-21T08:13:18.370Z,18.90
2022-08-21T08:15:45.226Z,20.60
2022-08-21T08:18:12.376Z,19.20
2022-08-21T08:20:39.415Z,19.20
2022-08-21T08:23:06.906Z,19.30
2022-08-21T08:25:36.440Z,19.40
2022-08-21T08:28:06.430Z,19.40
2022-08-21T08:30:43.647Z,19.50
2022-08-21T08:33:10.847Z,19.60
2022-08-21T08:35:39.091Z,19.70
2022-08-21T08:38:06.747Z,21.10
2022-08-21T08:40:43.004Z,19.80
2022-08-21T08:43:11.057Z,19.90
2022-08-21T08:45:43.479Z,20.60
2022-08-21T08:48:14.241Z,20.00
2022-08-21T08:50:53.486Z,20.10
2022-08-21T08:53:23.387Z,20.20
2022-08-21T08:55:52.312Z,20.30
2022-08-21T08:58:32.326Z,20.30
2022-08-21T09:00:59.988Z,20.40
2022-08-21T09:03:31.742Z,22.40
2022-08-21T09:06:09.224Z,20.50
2022-08-21T09:08:45.750Z,20.60
2022-08-21T09:11:16.006Z,20.70
2022-08-21T09:13:42.689Z,20.80
2022-08-21T09:16:52.577Z,22.80
2022-08-21T09:19:26.293Z,21.00
2022-08-21T09:21:56.630Z,21.20
2022-08-21T09:24:35.744Z,21.20
2022-08-21T09:27:11.711Z,21.30
2022-08-21T09:29:44.576Z,21.40
2022-08-21T09:32:18.804Z,22.60
2022-08-21T09:35:00.985Z,21.50
2022-08-21T09:37:34.141Z,21.50
2022-08-21T09:42:35.560Z,21.50
2022-08-21T09:45:07.315Z,21.60
2022-08-21T09:47:33.991Z,21.70
2022-08-21T09:50:08.407Z,21.70
2022-08-21T09:52:35.464Z,21.70
2022-08-21T09:55:22.138Z,21.90
2022-08-21T09:57:50.450Z,22.10
2022-08-21T10:00:25.959Z,22.40
2022-08-21T10:02:52.763Z,22.60
2022-08-21T10:05:23.919Z,22.80
2022-08-21T10:07:51.101Z,22.80
2022-08-21T10:10:22.743Z,22.80
2022-08-21T10:13:08.143Z,22.80
2022-08-21T10:15:40.905Z,22.80
2022-08-21T10:18:10.653Z,22.70
2022-08-21T10:20:42.047Z,22.70
2022-08-21T10:23:08.729Z,22.70
2022-08-21T10:25:52.027Z,22.80
2022-08-21T10:28:38.378Z,22.80
2022-08-21T10:31:08.285Z,22.80
2022-08-21T10:33:35.039Z,22.90
2022-08-21T10:36:14.044Z,22.90
2022-08-21T10:42:06.714Z,23.00
2022-08-21T10:44:52.275Z,23.00
2022-08-21T10:47:24.991Z,23.00
2022-08-21T10:50:02.390Z,22.90
2022-08-21T10:52:29.046Z,22.90
2022-08-21T10:55:03.175Z,22.90
2022-08-21T10:57:37.262Z,23.10
2022-08-21T11:00:09.538Z,23.10
2022-08-21T11:02:39.958Z,23.10
2022-08-21T11:05:10.654Z,23.20
2022-08-21T11:07:40.551Z,23.40
2022-08-21T11:10:22.043Z,23.40
2022-08-21T11:12:55.501Z,23.40
2022-08-21T11:15:29.540Z,23.30
2022-08-21T11:18:05.176Z,23.40
2022-08-21T11:20:31.838Z,23.40
2022-08-21T11:23:04.091Z,23.40
2022-08-21T11:25:33.727Z,23.30
2022-08-21T11:28:10.876Z,23.20
2022-08-21T11:30:45.927Z,23.10
2022-08-21T11:33:22.626Z,23.10
2022-08-21T11:35:52.783Z,23.20
2022-08-21T11:38:28.903Z,23.40
2022-08-21T11:41:03.888Z,23.50
2022-08-21T11:43:33.539Z,23.60
2022-08-21T11:46:23.508Z,23.60
2022-08-21T11:48:59.931Z,23.90
2022-08-21T11:51:29.987Z,24.10
2022-08-21T11:54:02.791Z,24.00
2022-08-21T11:56:40.021Z,24.00
2022-08-21T11:59:09.107Z,24.10
2022-08-21T12:01:38.285Z,24.30
2022-08-21T12:04:07.425Z,24.30
2022-08-21T12:06:36.632Z,24.20
2022-08-21T12:09:08.381Z,24.10
2022-08-21T12:11:47.389Z,24.10
2022-08-21T12:14:16.039Z,24.00
2022-08-21T12:16:44.068Z,24.00
2022-08-21T12:19:15.443Z,24.10
2022-08-21T12:21:50.412Z,24.20
2022-08-21T12:24:32.335Z,24.20
2022-08-21T12:27:14.210Z,24.30
2022-08-21T12:29:46.241Z,24.10
2022-08-21T12:32:15.925Z,24.00
2022-08-21T12:34:55.067Z,23.90
2022-08-21T12:37:38.142Z,24.00
2022-08-21T12:40:10.750Z,24.10
2022-08-21T12:42:43.263Z,24.10
2022-08-21T12:45:28.876Z,24.10
2022-08-21T12:47:58.423Z,24.10
2022-08-21T12:50:44.053Z,24.10
2022-08-21T12:53:31.693Z,24.10
2022-08-21T12:56:02.881Z,24.10
2022-08-21T12:58:29.852Z,24.10
2022-08-21T13:01:08.416Z,24.20
2022-08-21T13:03:36.553Z,24.30
2022-08-21T13:06:06.843Z,24.40
2022-08-21T13:08:40.798Z,24.50
2022-08-21T13:11:15.213Z,24.50
2022-08-21T13:13:46.869Z,24.60
2022-08-21T13:16:20.604Z,24.80
2022-08-21T13:19:00.296Z,24.90
2022-08-21T13:21:31.928Z,25.00
2022-08-21T13:24:40.725Z,25.00
2022-08-21T13:27:03.422Z,25.00
2022-08-21T13:29:33.198Z,24.90
2022-08-21T13:32:01.546Z,24.70
2022-08-21T13:34:31.246Z,24.90
2022-08-21T13:36:59.804Z,24.90
2022-08-21T13:39:26.993Z,24.90
2022-08-21T13:41:56.749Z,25.00
2022-08-21T13:44:27.473Z,25.20
2022-08-21T13:46:54.899Z,25.30
2022-08-21T13:49:24.206Z,25.50
2022-08-21T13:51:53.039Z,25.70
2022-08-21T13:54:28.043Z,25.80
2022-08-21T13:56:55.294Z,25.80
2022-08-21T13:59:26.673Z,25.80
2022-08-21T14:02:00.335Z,25.90
2022-08-21T14:04:32.214Z,25.90
2022-08-21T14:06:59.035Z,25.90
2022-08-21T14:09:33.630Z,26.20
2022-08-21T14:12:02.199Z,26.20
2022-08-21T14:14:35.499Z,26.20
2022-08-21T14:17:25.209Z,26.10
2022-08-21T14:19:51.025Z,26.00
2022-08-21T14:22:24.035Z,26.00
2022-08-21T14:24:55.092Z,25.90
2022-08-21T14:27:23.988Z,26.00
2022-08-21T14:29:50.668Z,26.10
2022-08-21T14:32:25.319Z,26.00
2022-08-21T14:34:54.585Z,26.10
2022-08-21T14:37:22.137Z,26.10
2022-08-21T14:39:48.929Z,26.10
2022-08-21T14:42:15.735Z,26.00
2022-08-21T14:44:42.420Z,25.90
2022-08-21T14:47:09.687Z,25.90
2022-08-21T14:49:36.408Z,25.90
2022-08-21T14:52:03.210Z,25.80
2022-08-21T14:54:32.395Z,25.80
2022-08-21T14:57:01.466Z,25.80
2022-08-21T14:59:28.440Z,25.90
2022-08-21T15:01:55.227Z,25.90
2022-08-21T15:04:21.845Z,25.90
2022-08-21T15:06:48.541Z,25.80
2022-08-21T15:09:15.242Z,25.70
2022-08-21T15:11:43.270Z,25.70
2022-08-21T15:14:13.907Z,25.70
2022-08-21T15:16:40.691Z,25.70
2022-08-21T15:19:07.330Z,25.80
2022-08-21T15:21:34.010Z,25.80
2022-08-21T15:24:00.683Z,25.80
2022-08-21T15:26:27.408Z,25.80
2022-08-21T15:28:54.075Z,25.80
2022-08-21T15:31:20.807Z,25.80
2022-08-21T15:33:47.461Z,25.70
2022-08-21T15:36:14.167Z,25.70
2022-08-21T15:38:40.941Z,25.80
2022-08-21T15:41:07.698Z,25.80
2022-08-21T15:43:38.138Z,25.80
2022-08-21T15:46:06.733Z,25.80
2022-08-21T15:48:33.514Z,25.80
2022-08-21T15:51:00.193Z,25.70
2022-08-21T15:53:26.871Z,25.70
2022-08-21T15:55:54.270Z,25.70
2022-08-21T15:58:22.339Z,27.20
2022-08-21T16:00:49.061Z,25.90
2022-08-21T16:03:17.786Z,25.90
2022-08-21T16:05:45.208Z,25.90
2022-08-21T16:08:11.990Z,25.80
2022-08-21T16:10:39.025Z,25.80
2022-08-21T16:13:07.238Z,25.90
2022-08-21T16:15:34.289Z,25.80
2022-08-21T16:18:01.003Z,25.80
2022-08-21T16:20:28.906Z,25.80
2022-08-21T16:22:56.875Z,25.70
2022-08-21T16:25:23.878Z,25.70
2022-08-21T16:27:53.662Z,25.60
2022-08-21T16:30:24.285Z,25.60
2022-08-21T16:32:51.718Z,25.60
2022-08-21T16:35:20.337Z,25.60
2022-08-21T16:37:50.030Z,25.50
2022-08-21T16:40:19.719Z,25.60
2022-08-21T16:42:46.539Z,25.60
2022-08-21T16:45:15.022Z,25.50
2022-08-21T16:47:43.079Z,25.50
2022-08-21T16:50:10.169Z,25.40
2022-08-21T16:52:37.045Z,25.30
2022-08-21T16:55:05.230Z,25.30
2022-08-21T16:57:31.981Z,25.30
2022-08-21T16:59:58.724Z,25.30
2022-08-21T17:02:31.628Z,25.30
2022-08-21T17:04:58.467Z,25.40
2022-08-21T17:07:25.188Z,25.20
2022-08-21T17:09:51.904Z,25.10
2022-08-21T17:12:18.765Z,25.10
2022-08-21T17:14:45.533Z,25.00
2022-08-21T17:17:12.416Z,25.00
2022-08-21T17:19:39.148Z,25.00
2022-08-21T17:22:06.332Z,24.90
2022-08-21T17:24:33.697Z,24.80
2022-08-21T17:27:00.771Z,24.70
2022-08-21T17:29:29.099Z,24.70
2022-08-21T17:31:56.176Z,24.50
2022-08-21T17:34:23.366Z,24.50
2022-08-21T17:36:55.668Z,24.40
2022-08-21T17:39:26.510Z,24.20
2022-08-21T17:41:57.635Z,24.10
2022-08-21T17:44:24.870Z,24.00
2022-08-21T17:46:51.547Z,23.80
2022-08-21T17:49:18.283Z,23.80
2022-08-21T17:51:44.967Z,23.70
2022-08-21T17:54:11.757Z,23.50
2022-08-21T17:56:40.377Z,23.50
2022-08-21T17:59:07.126Z,23.30
2022-08-21T18:01:35.521Z,23.20
2022-08-21T18:04:02.547Z,23.10
2022-08-21T18:06:29.410Z,23.10
2022-08-21T18:08:57.858Z,22.90
2022-08-21T18:11:25.639Z,22.80
2022-08-21T18:13:54.111Z,22.70
2022-08-21T18:16:21.570Z,22.40
2022-08-21T18:18:49.229Z,22.30
2022-08-21T18:21:16.389Z,22.20
2022-08-21T18:23:44.979Z,22.20
2022-08-21T18:26:14.263Z,22.10
2022-08-21T18:28:41.260Z,22.00
2022-08-21T18:31:09.381Z,22.00
2022-08-21T18:33:37.262Z,21.90
2022-08-21T18:36:04.614Z,21.90
2022-08-21T18:38:31.567Z,21.70
2022-08-21T18:40:59.787Z,21.60
2022-08-21T18:43:26.668Z,21.10
2022-08-21T18:45:53.518Z,21.00
2022-08-21T18:48:20.676Z,20.90
2022-08-21T18:50:48.155Z,20.70
2022-08-21T18:53:24.065Z,20.60
2022-08-21T18:55:54.635Z,20.50
2022-08-21T18:58:23.913Z,20.40
2022-08-21T19:00:51.606Z,20.40
2022-08-21T19:03:23.700Z,17.40
2022-08-21T19:06:09.639Z,20.10
2022-08-21T19:08:38.747Z,19.90
2022-08-21T19:11:06.676Z,19.80
2022-08-21T19:13:33.861Z,21.40
2022-08-21T19:16:03.741Z,19.80
2022-08-21T19:18:31.949Z,19.80
2022-08-21T19:20:58.903Z,19.90
2022-08-21T19:23:29.197Z,18.40
2022-08-21T19:26:00.456Z,19.80
2022-08-21T19:28:29.880Z,19.80
2022-08-21T19:31:02.037Z,19.80
2022-08-21T19:33:31.317Z,19.80
2022-08-21T19:36:00.503Z,19.70
2022-08-21T19:38:27.462Z,19.80
2022-08-21T19:40:55.921Z,19.40
2022-08-21T19:43:23.421Z,19.40
2022-08-21T19:45:51.002Z,21.50
2022-08-21T19:48:18.997Z,19.10
2022-08-21T19:50:45.925Z,19.40
2022-08-21T19:53:12.699Z,19.60
2022-08-21T19:55:42.894Z,18.80
2022-08-21T19:58:13.883Z,19.90
2022-08-21T20:00:40.591Z,18.50
2022-08-21T20:03:11.062Z,18.30
2022-08-21T20:05:39.830Z,19.40
2022-08-21T20:10:56.032Z,18.80
2022-08-21T20:13:25.708Z,18.50
2022-08-21T20:15:53.108Z,18.40
2022-08-21T20:18:20.443Z,17.60
2022-08-21T20:20:53.729Z,19.20
2022-08-21T20:23:29.974Z,18.00
2022-08-21T20:25:57.930Z,19.80
2022-08-21T20:28:24.751Z,19.20
2022-08-21T20:30:52.851Z,17.60
2022-08-21T20:33:19.754Z,17.50
2022-08-21T20:35:49.848Z,18.00
2022-08-21T20:38:16.964Z,18.00
2022-08-21T20:40:44.181Z,17.10
2022-08-21T20:43:12.671Z,17.00
2022-08-21T20:45:40.200Z,16.80
2022-08-21T20:48:23.737Z,16.70
2022-08-21T20:50:52.072Z,16.70
2022-08-21T20:53:44.542Z,16.70
2022-08-21T20:56:20.234Z,16.70
2022-08-21T20:59:01.437Z,16.70
2022-08-21T21:01:31.444Z,16.70
2022-08-21T21:04:04.463Z,17.20
2022-08-21T21:06:37.433Z,16.40
2022-08-21T21:09:07.874Z,16.90
2022-08-21T21:11:38.313Z,17.50
2022-08-21T21:14:16.527Z,16.10
2022-08-21T21:19:48.785Z,16.70
2022-08-21T21:22:27.887Z,15.70
2022-08-21T21:25:08.109Z,15.60
2022-08-21T21:27:37.579Z,15.50
2022-08-21T21:30:07.041Z,17.00
2022-08-21T21:32:39.183Z,15.50
2022-08-21T21:35:06.697Z,15.70
2022-08-21T21:37:43.760Z,15.50
2022-08-21T21:40:32.845Z,15.40
2022-08-21T21:43:08.274Z,15.40
2022-08-21T21:45:41.082Z,15.30
2022-08-21T21:48:07.694Z,15.10
2022-08-21T21:50:37.499Z,15.00
2022-08-21T21:53:19.728Z,14.90
2022-08-21T21:55:47.322Z,14.90
2022-08-21T21:58:33.375Z,15.40
2022-08-21T22:01:09.567Z,14.80
2022-08-21T22:03:45.960Z,15.40
2022-08-21T22:06:33.465Z,14.90
2022-08-21T22:09:20.813Z,14.90
2022-08-21T22:12:15.689Z,15.00
2022-08-21T22:14:43.797Z,15.00
2022-08-21T22:17:27.640Z,16.50
2022-08-21T22:19:55.433Z,15.10
2022-08-21T22:22:24.695Z,15.40
2022-08-21T22:24:53.564Z,15.50
2022-08-21T22:27:29.150Z,16.00
2022-08-21T22:29:58.994Z,16.30
2022-08-21T22:32:35.455Z,15.20
2022-08-21T22:35:05.104Z,15.10
2022-08-21T22:37:37.582Z,15.00
2022-08-21T22:40:04.916Z,15.70
2022-08-21T22:42:31.595Z,14.90
2022-08-21T22:45:00.537Z,16.80
2022-08-21T22:47:41.509Z,15.00
2022-08-21T22:50:27.586Z,15.00
2022-08-21T22:52:58.259Z,15.00
2022-08-21T22:55:27.115Z,15.30
2022-08-21T22:58:11.549Z,15.70
2022-08-21T23:00:58.750Z,15.00
2022-08-21T23:03:31.745Z,14.90
2022-08-21T23:06:00.764Z,14.90
2022-08-21T23:08:35.935Z,15.30
2022-08-21T23:11:05.305Z,14.70
2022-08-21T23:13:39.722Z,14.90
2022-08-21T23:16:15.718Z,14.60
2022-08-21T23:18:48.789Z,15.70
2022-08-21T23:21:35.838Z,14.40
2022-08-21T23:24:19.370Z,14.50
2022-08-21T23:26:59.039Z,14.00
2022-08-21T23:29:36.096Z,13.90
